createdAt,value
2018-04-06T00:00:07.295Z,3.43
2018-04-06T00:02:36.495Z,3.28
2018-04-06T00:05:06.598Z,3.29
2018-04-06T00:07:35.377Z,3.21
2018-04-06T00:10:04.673Z,3.33
2018-04-06T00:12:34.607Z,3.25
2018-04-06T00:15:03.012Z,3.29
2018-04-06T00:17:32.309Z,3.22
2018-04-06T00:20:03.532Z,3.01
2018-04-06T00:22:31.964Z,2.95
2018-04-06T00:25:01.249Z,3.10
2018-04-06T00:27:30.119Z,2.88
2018-04-06T00:29:59.468Z,2.71
2018-04-06T00:32:30.298Z,2.91
2018-04-06T00:34:59.406Z,2.86
2018-04-06T00:37:28.659Z,2.72
2018-04-06T00:39:57.018Z,2.77
2018-04-06T00:42:26.285Z,2.71
2018-04-06T00:44:54.650Z,2.72
2018-04-06T00:47:23.926Z,2.56
2018-04-06T00:49:52.292Z,2.53
2018-04-06T00:52:22.368Z,2.47
2018-04-06T00:54:52.624Z,2.37
2018-04-06T00:57:21.891Z,2.35
2018-04-06T00:59:52.135Z,2.32
2018-04-06T01:02:21.156Z,2.25
2018-04-06T01:04:50.301Z,2.29
2018-04-06T01:07:18.928Z,2.09
2018-04-06T01:09:48.755Z,1.91
2018-04-06T01:12:18.192Z,1.82
2018-04-06T01:14:47.082Z,1.95
2018-04-06T01:17:16.348Z,1.96
2018-04-06T01:19:46.463Z,2.08
2018-04-06T01:22:15.734Z,2.12
2018-04-06T01:24:44.876Z,2.12
2018-04-06T01:27:14.759Z,2.14
2018-04-06T01:29:45.904Z,2.09
2018-04-06T01:32:15.754Z,2.19
2018-04-06T01:34:44.095Z,2.38
2018-04-06T01:37:13.707Z,2.62
2018-04-06T01:39:43.439Z,2.73
2018-04-06T01:42:12.589Z,2.65
2018-04-06T01:44:42.107Z,2.67
2018-04-06T01:47:11.106Z,2.78
2018-04-06T01:49:39.837Z,2.57
2018-04-06T01:52:09.333Z,2.39
2018-04-06T01:54:39.525Z,2.28
2018-04-06T01:57:09.606Z,2.31
2018-04-06T01:59:39.292Z,2.07
2018-04-06T02:02:08.571Z,1.96
2018-04-06T02:04:37.810Z,1.98
2018-04-06T02:07:07.539Z,2.07
2018-04-06T02:09:36.603Z,2.18
2018-04-06T02:12:05.529Z,2.20
2018-04-06T02:14:34.761Z,2.13
2018-04-06T02:17:03.121Z,2.17
2018-04-06T02:19:31.909Z,2.11
2018-04-06T02:22:01.931Z,1.91
2018-04-06T02:24:32.665Z,1.86
2018-04-06T02:27:02.421Z,1.82
2018-04-06T02:29:31.569Z,1.87
2018-04-06T02:32:01.641Z,1.87
2018-04-06T02:34:31.003Z,1.71
2018-04-06T02:36:59.379Z,1.79
2018-04-06T02:39:29.318Z,1.75
2018-04-06T02:41:58.744Z,1.80
2018-04-06T02:44:29.371Z,1.90
2018-04-06T02:47:00.554Z,1.92
2018-04-06T02:49:28.983Z,1.75
2018-04-06T02:51:59.507Z,1.77
2018-04-06T02:54:30.446Z,1.79
2018-04-06T02:56:58.820Z,1.78
2018-04-06T02:59:28.998Z,1.58
2018-04-06T03:01:58.952Z,1.69
2018-04-06T03:04:28.448Z,1.67
2018-04-06T03:06:57.750Z,1.66
2018-04-06T03:09:28.129Z,1.72
2018-04-06T03:11:56.950Z,1.73
2018-04-06T03:14:27.215Z,1.76
2018-04-06T03:16:56.324Z,1.54
2018-04-06T03:19:24.735Z,1.58
2018-04-06T03:21:53.103Z,1.70
2018-04-06T03:24:24.192Z,1.75
2018-04-06T03:26:54.687Z,1.51
2018-04-06T03:29:23.046Z,1.03
2018-04-06T03:31:52.890Z,1.27
2018-04-06T03:34:21.535Z,1.04
2018-04-06T03:36:50.743Z,1.16
2018-04-06T03:39:20.545Z,1.09
2018-04-06T03:41:49.280Z,0.90
2018-04-06T03:44:17.782Z,0.47
2018-04-06T03:46:46.174Z,0.75
2018-04-06T03:49:17.543Z,0.98
2018-04-06T03:51:47.452Z,1.22
2018-04-06T03:54:15.820Z,1.26
2018-04-06T03:56:47.704Z,1.15
2018-04-06T03:59:16.117Z,1.17
2018-04-06T04:01:45.153Z,1.33
2018-04-06T04:04:14.476Z,1.50
2018-04-06T04:06:44.007Z,1.52
2018-04-06T04:09:14.429Z,1.67
2018-04-06T04:11:44.868Z,1.66
2018-04-06T04:14:15.446Z,1.79
2018-04-06T04:16:44.453Z,1.73
2018-04-06T04:19:15.144Z,1.77
2018-04-06T04:21:44.285Z,1.69
2018-04-06T04:24:12.607Z,1.81
2018-04-06T04:26:42.102Z,1.78
2018-04-06T04:29:11.301Z,1.88
2018-04-06T04:31:40.562Z,1.72
2018-04-06T04:34:09.310Z,1.81
2018-04-06T04:36:37.879Z,1.72
2018-04-06T04:39:06.790Z,1.60
2018-04-06T04:41:36.635Z,1.63
2018-04-06T04:44:07.645Z,1.67
2018-04-06T04:46:37.112Z,1.58
2018-04-06T04:49:07.192Z,1.54
2018-04-06T04:51:36.560Z,1.41
2018-04-06T04:54:05.778Z,1.36
2018-04-06T04:56:35.104Z,1.48
2018-04-06T04:59:03.480Z,1.55
2018-04-06T05:01:32.884Z,1.45
2018-04-06T05:04:03.689Z,1.46
2018-04-06T05:06:33.055Z,1.56
2018-04-06T05:09:03.242Z,1.71
2018-04-06T05:11:33.734Z,1.65
2018-04-06T05:14:02.068Z,1.64
2018-04-06T05:16:32.758Z,1.75
2018-04-06T05:19:02.163Z,1.66
2018-04-06T05:21:31.504Z,1.74
2018-04-06T05:24:01.833Z,1.70
2018-04-06T05:26:32.350Z,1.84
2018-04-06T05:29:00.783Z,1.89
2018-04-06T05:31:29.988Z,1.97
2018-04-06T05:33:59.935Z,1.98
2018-04-06T05:36:30.394Z,1.93
2018-04-06T05:38:59.332Z,1.99
2018-04-06T05:41:28.410Z,2.04
2018-04-06T05:43:58.277Z,2.07
2018-04-06T05:46:28.818Z,2.13
2018-04-06T05:48:57.341Z,2.21
2018-04-06T05:51:26.357Z,2.34
2018-04-06T05:53:58.340Z,2.36
2018-04-06T05:56:28.205Z,2.36
2018-04-06T05:58:56.643Z,2.29
2018-04-06T06:01:25.719Z,2.47
2018-04-06T06:03:55.116Z,2.44
2018-04-06T06:06:23.835Z,2.48
2018-04-06T06:08:53.170Z,2.52
2018-04-06T06:11:21.758Z,2.35
2018-04-06T06:13:50.842Z,2.54
2018-04-06T06:16:21.495Z,2.70
2018-04-06T06:18:52.262Z,2.82
2018-04-06T06:21:21.154Z,2.83
2018-04-06T06:23:50.356Z,3.00
2018-04-06T06:26:20.386Z,3.02
2018-04-06T06:28:49.460Z,2.98
2018-04-06T06:31:19.036Z,2.80
2018-04-06T06:33:48.129Z,3.09
2018-04-06T06:36:19.239Z,3.19
2018-04-06T06:38:48.742Z,2.98
2018-04-06T06:41:18.968Z,2.98
2018-04-06T06:43:49.607Z,3.05
2018-04-06T06:46:17.934Z,3.15
2018-04-06T06:48:47.187Z,3.24
2018-04-06T06:51:16.640Z,3.30
2018-04-06T06:53:45.966Z,3.30
2018-04-06T06:56:16.142Z,3.23
2018-04-06T06:58:45.919Z,3.18
2018-04-06T07:01:16.072Z,3.34
2018-04-06T07:03:44.703Z,3.53
2018-04-06T07:06:13.077Z,3.42
2018-04-06T07:08:43.967Z,3.59
2018-04-06T07:11:14.869Z,3.72
2018-04-06T07:13:44.020Z,3.93
2018-04-06T07:16:14.205Z,4.15
2018-04-06T07:18:45.578Z,4.25
2018-04-06T07:21:14.966Z,4.42
2018-04-06T07:23:44.214Z,4.54
2018-04-06T07:26:14.089Z,4.69
2018-04-06T07:28:43.172Z,4.77
2018-04-06T07:31:12.595Z,4.93
2018-04-06T07:33:41.814Z,5.02
2018-04-06T07:36:12.239Z,5.16
2018-04-06T07:38:42.889Z,5.20
2018-04-06T07:41:11.989Z,5.37
2018-04-06T07:43:41.303Z,5.46
2018-04-06T07:46:09.663Z,5.65
2018-04-06T07:48:38.021Z,5.81
2018-04-06T07:51:08.008Z,5.87
2018-04-06T07:53:37.043Z,5.84
2018-04-06T07:56:06.306Z,5.97
2018-04-06T07:58:34.647Z,6.01
2018-04-06T08:01:03.518Z,6.03
2018-04-06T08:03:33.198Z,6.11
2018-04-06T08:06:01.570Z,6.37
2018-04-06T08:08:30.033Z,6.60
2018-04-06T08:10:58.666Z,6.68
2018-04-06T08:13:29.532Z,6.65
2018-04-06T08:16:00.867Z,6.84
2018-04-06T08:18:29.495Z,7.02
2018-04-06T08:20:58.824Z,6.94
2018-04-06T08:23:28.501Z,7.11
2018-04-06T08:25:57.656Z,7.44
2018-04-06T08:28:26.978Z,7.12
2018-04-06T08:30:55.971Z,7.07
2018-04-06T08:33:24.978Z,7.48
2018-04-06T08:35:55.073Z,7.73
2018-04-06T08:38:23.709Z,7.68
2018-04-06T08:40:55.794Z,7.78
2018-04-06T08:43:24.140Z,8.12
2018-04-06T08:45:52.538Z,8.03
2018-04-06T08:48:22.195Z,8.05
2018-04-06T08:50:52.758Z,8.38
2018-04-06T08:53:21.096Z,8.37
2018-04-06T08:55:49.402Z,8.47
2018-04-06T08:58:18.572Z,8.50
2018-04-06T09:00:47.118Z,8.62
2018-04-06T09:03:16.302Z,8.78
2018-04-06T09:05:45.413Z,8.74
2018-04-06T09:08:13.837Z,8.37
2018-04-06T09:10:42.967Z,8.58
2018-04-06T09:13:12.950Z,8.72
2018-04-06T09:15:41.318Z,8.79
2018-04-06T09:18:09.719Z,8.66
2018-04-06T09:20:38.294Z,8.90
2018-04-06T09:23:09.360Z,9.11
2018-04-06T09:25:38.560Z,9.54
2018-04-06T09:28:06.952Z,9.68
2018-04-06T09:30:36.243Z,9.86
2018-04-06T09:33:04.652Z,9.95
2018-04-06T09:35:34.542Z,10.11
2018-04-06T09:38:03.143Z,10.36
2018-04-06T09:40:31.458Z,10.33
2018-04-06T09:42:59.935Z,10.50
2018-04-06T09:45:29.890Z,10.44
2018-04-06T09:47:59.895Z,10.38
2018-04-06T09:50:28.209Z,10.10
2018-04-06T09:52:57.264Z,10.58
2018-04-06T09:55:28.657Z,10.66
2018-04-06T09:57:59.904Z,10.75
2018-04-06T10:00:32.931Z,10.64
2018-04-06T10:03:03.150Z,10.78
2018-04-06T10:05:32.886Z,10.78
2018-04-06T10:08:02.887Z,10.37
2018-04-06T10:10:31.295Z,10.72
2018-04-06T10:12:59.687Z,10.88
2018-04-06T10:15:28.395Z,10.89
2018-04-06T10:17:57.028Z,11.32
2018-04-06T10:20:26.090Z,11.59
2018-04-06T10:22:55.004Z,11.72
2018-04-06T10:25:23.383Z,11.59
2018-04-06T10:27:52.692Z,12.11
2018-04-06T10:30:23.675Z,11.83
2018-04-06T10:32:52.018Z,12.27
2018-04-06T10:35:21.698Z,12.59
2018-04-06T10:37:50.847Z,12.58
2018-04-06T10:40:19.881Z,11.83
2018-04-06T10:42:48.602Z,12.08
2018-04-06T10:45:17.385Z,12.22
2018-04-06T10:47:48.083Z,11.59
2018-04-06T10:50:18.257Z,12.43
2018-04-06T10:52:48.301Z,12.69
2018-04-06T10:55:17.648Z,12.73
2018-04-06T10:57:47.154Z,12.86
2018-04-06T11:00:16.924Z,13.13
2018-04-06T11:02:46.110Z,13.35
2018-04-06T11:05:15.371Z,13.16
2018-04-06T11:07:43.767Z,13.24
2018-04-06T11:10:12.792Z,13.38
2018-04-06T11:12:41.084Z,13.88
2018-04-06T11:15:10.815Z,13.73
2018-04-06T11:17:39.168Z,13.47
2018-04-06T11:20:07.560Z,13.33
2018-04-06T11:22:36.952Z,13.22
2018-04-06T11:25:05.307Z,13.41
2018-04-06T11:27:34.646Z,13.33
2018-04-06T11:30:03.007Z,13.44
2018-04-06T11:32:32.320Z,13.58
2018-04-06T11:35:00.947Z,13.49
2018-04-06T11:37:30.966Z,13.64
2018-04-06T11:39:59.956Z,14.27
2018-04-06T11:42:28.324Z,14.10
2018-04-06T11:44:57.920Z,13.91
2018-04-06T11:47:27.146Z,14.31
2018-04-06T11:49:55.546Z,14.59
2018-04-06T11:52:23.885Z,14.94
2018-04-06T11:54:52.644Z,14.68
2018-04-06T11:57:21.027Z,14.86
2018-04-06T11:59:50.934Z,14.77
2018-04-06T12:02:19.304Z,14.52
2018-04-06T12:04:47.648Z,14.91
2018-04-06T12:07:16.026Z,15.05
2018-04-06T12:09:45.957Z,15.24
2018-04-06T12:12:14.691Z,15.58
2018-04-06T12:14:43.911Z,15.42
2018-04-06T12:17:12.856Z,15.66
2018-04-06T12:19:42.296Z,15.76
2018-04-06T12:22:10.728Z,15.68
2018-04-06T12:24:39.087Z,15.62
2018-04-06T12:27:08.355Z,15.82
2018-04-06T12:29:36.745Z,16.01
2018-04-06T12:32:05.919Z,16.16
2018-04-06T12:34:34.294Z,16.08
2018-04-06T12:37:03.792Z,16.03
2018-04-06T12:39:32.259Z,16.12
2018-04-06T12:42:02.159Z,16.00
2018-04-06T12:44:30.789Z,16.09
2018-04-06T12:47:00.008Z,16.39
2018-04-06T12:49:28.445Z,16.36
2018-04-06T12:51:58.064Z,16.28
2018-04-06T12:54:28.550Z,16.77
2018-04-06T12:56:56.906Z,16.35
2018-04-06T12:59:26.049Z,15.64
2018-04-06T13:01:54.784Z,16.21
2018-04-06T13:04:25.478Z,15.88
2018-04-06T13:06:55.668Z,16.45
2018-04-06T13:09:24.396Z,16.47
2018-04-06T13:11:53.536Z,16.92
2018-04-06T13:14:22.343Z,16.74
2018-04-06T13:16:51.596Z,16.84
2018-04-06T13:19:19.991Z,17.11
2018-04-06T13:21:51.344Z,17.40
2018-04-06T13:24:19.706Z,17.43
2018-04-06T13:26:48.079Z,16.69
2018-04-06T13:29:16.438Z,16.93
2018-04-06T13:31:45.954Z,17.29
2018-04-06T13:34:15.229Z,17.50
2018-04-06T13:36:44.621Z,17.80
2018-04-06T13:39:12.974Z,17.37
2018-04-06T13:41:42.203Z,17.19
2018-04-06T13:44:10.563Z,17.34
2018-04-06T13:46:38.974Z,16.91
2018-04-06T13:49:07.304Z,16.93
2018-04-06T13:51:35.971Z,16.65
2018-04-06T13:54:04.702Z,16.80
2018-04-06T13:56:33.863Z,16.87
2018-04-06T13:59:02.255Z,17.62
2018-04-06T14:01:31.251Z,18.24
2018-04-06T14:04:01.987Z,18.04
2018-04-06T14:06:30.830Z,18.23
2018-04-06T14:09:00.820Z,17.56
2018-04-06T14:11:32.912Z,17.31
2018-04-06T14:14:01.528Z,17.89
2018-04-06T14:16:30.350Z,18.09
2018-04-06T14:18:58.672Z,18.14
2018-04-06T14:21:27.308Z,18.25
2018-04-06T14:23:57.162Z,18.20
2018-04-06T14:26:25.955Z,18.24
2018-04-06T14:28:55.975Z,18.07
2018-04-06T14:31:25.530Z,17.78
2018-04-06T14:33:55.658Z,18.17
2018-04-06T14:36:24.038Z,17.69
2018-04-06T14:38:53.244Z,17.85
2018-04-06T14:41:21.558Z,17.93
2018-04-06T14:43:50.410Z,17.84
2018-04-06T14:46:21.329Z,18.39
2018-04-06T14:48:49.665Z,18.92
2018-04-06T14:51:18.063Z,18.85
2018-04-06T14:53:46.390Z,18.29
2018-04-06T14:56:15.549Z,18.40
2018-04-06T14:58:44.824Z,18.35
2018-04-06T15:01:14.155Z,18.30
2018-04-06T15:03:42.509Z,18.17
2018-04-06T15:06:12.016Z,18.12
2018-04-06T15:08:41.327Z,18.13
2018-04-06T15:11:10.920Z,17.92
2018-04-06T15:13:39.282Z,18.06
2018-04-06T15:16:08.588Z,18.24
2018-04-06T15:18:37.896Z,18.16
2018-04-06T15:21:06.252Z,18.15
2018-04-06T15:23:35.343Z,18.10
2018-04-06T15:26:04.801Z,18.08
2018-04-06T15:28:33.714Z,17.91
2018-04-06T15:31:02.868Z,18.22
2018-04-06T15:33:31.238Z,18.20
2018-04-06T15:36:01.580Z,18.50
2018-04-06T15:38:29.976Z,18.67
2018-04-06T15:40:58.468Z,18.22
2018-04-06T15:43:28.076Z,18.34
2018-04-06T15:45:57.619Z,18.69
2018-04-06T15:48:26.060Z,18.78
2018-04-06T15:50:56.262Z,18.56
2018-04-06T15:53:24.983Z,18.46
2018-04-06T15:55:53.626Z,18.45
2018-04-06T15:58:21.951Z,18.90
2018-04-06T16:00:50.736Z,18.68
2018-04-06T16:03:19.865Z,18.36
2018-04-06T16:05:48.966Z,18.52
2018-04-06T16:08:19.132Z,18.51
2018-04-06T16:10:47.525Z,19.19
2018-04-06T16:13:16.116Z,18.52
2018-04-06T16:15:44.485Z,18.97
2018-04-06T16:18:17.007Z,19.61
2018-04-06T16:20:45.748Z,19.43
2018-04-06T16:23:14.870Z,18.94
2018-04-06T16:25:43.220Z,18.78
2018-04-06T16:28:12.832Z,18.55
2018-04-06T16:30:41.881Z,18.86
2018-04-06T16:33:10.240Z,18.56
2018-04-06T16:35:38.576Z,18.36
2018-04-06T16:38:06.925Z,18.12
2018-04-06T16:40:35.292Z,17.76
2018-04-06T16:43:03.664Z,17.96
2018-04-06T16:45:32.036Z,18.55
2018-04-06T16:48:01.132Z,18.63
2018-04-06T16:50:30.606Z,18.67
2018-04-06T16:53:02.906Z,18.92
2018-04-06T16:55:31.438Z,19.11
2018-04-06T16:57:59.957Z,19.19
2018-04-06T17:00:28.288Z,19.21
2018-04-06T17:02:56.822Z,19.39
2018-04-06T17:05:25.211Z,19.25
2018-04-06T17:07:55.059Z,18.88
2018-04-06T17:10:23.462Z,19.48
2018-04-06T17:12:51.806Z,19.56
2018-04-06T17:15:20.928Z,19.55
2018-04-06T17:17:51.457Z,19.84
2018-04-06T17:20:19.840Z,19.27
2018-04-06T17:22:48.854Z,19.48
2018-04-06T17:25:17.909Z,18.75
2018-04-06T17:27:46.772Z,18.77
2018-04-06T17:30:16.531Z,18.53
2018-04-06T17:32:44.969Z,18.27
2018-04-06T17:35:14.058Z,18.03
2018-04-06T17:37:42.460Z,18.07
2018-04-06T17:40:13.171Z,17.12
2018-04-06T17:42:43.344Z,16.58
2018-04-06T17:45:13.438Z,16.25
2018-04-06T17:47:41.890Z,15.79
2018-04-06T17:50:11.184Z,15.55
2018-04-06T17:55:13.497Z,15.07
2018-04-06T17:57:41.894Z,14.85
2018-04-06T18:00:12.010Z,14.74
2018-04-06T18:02:40.401Z,14.56
2018-04-06T18:05:10.282Z,14.53
2018-04-06T18:07:39.459Z,14.39
2018-04-06T18:10:08.743Z,14.25
2018-04-06T18:12:38.172Z,14.11
2018-04-06T18:15:07.584Z,13.95
2018-04-06T18:17:36.739Z,14.09
2018-04-06T18:20:06.326Z,14.13
2018-04-06T18:22:36.184Z,13.91
2018-04-06T18:25:06.039Z,13.97
2018-04-06T18:27:34.429Z,13.80
2018-04-06T18:30:03.518Z,13.70
2018-04-06T18:32:32.336Z,13.65
2018-04-06T18:35:01.787Z,13.65
2018-04-06T18:37:32.056Z,13.57
2018-04-06T18:40:01.431Z,13.67
2018-04-06T18:42:31.276Z,13.53
2018-04-06T18:44:59.674Z,13.39
2018-04-06T18:47:28.764Z,13.20
2018-04-06T18:49:57.853Z,13.19
2018-04-06T18:52:26.958Z,13.07
2018-04-06T18:54:56.134Z,13.05
2018-04-06T18:57:24.781Z,12.88
2018-04-06T18:59:56.089Z,12.79
2018-04-06T19:02:26.542Z,12.68
2018-04-06T19:04:57.778Z,12.61
2018-04-06T19:07:26.190Z,12.52
2018-04-06T19:09:55.385Z,12.53
2018-04-06T19:12:24.560Z,12.37
2018-04-06T19:14:52.884Z,12.41
2018-04-06T19:17:21.313Z,12.49
2018-04-06T19:19:51.006Z,12.50
2018-04-06T19:22:19.436Z,12.42
2018-04-06T19:24:48.216Z,12.35
2018-04-06T19:27:17.325Z,12.31
2018-04-06T19:29:46.679Z,12.15
2018-04-06T19:32:16.389Z,12.16
2018-04-06T19:34:44.787Z,12.07
2018-04-06T19:37:14.092Z,12.05
2018-04-06T19:39:42.487Z,12.08
2018-04-06T19:42:12.650Z,12.00
2018-04-06T19:44:41.898Z,12.06
2018-04-06T19:47:11.178Z,11.89
2018-04-06T19:49:39.628Z,11.73
2018-04-06T19:52:08.947Z,11.65
2018-04-06T19:54:37.314Z,11.62
2018-04-06T19:57:05.706Z,11.44
2018-04-06T19:59:36.948Z,11.40
2018-04-06T20:02:05.698Z,11.22
2018-04-06T20:04:35.471Z,11.24
2018-04-06T20:07:05.218Z,11.27
2018-04-06T20:09:33.611Z,11.14
2018-04-06T20:12:04.619Z,11.08
2018-04-06T20:14:33.540Z,10.90
2018-04-06T20:17:03.151Z,10.85
2018-04-06T20:19:34.509Z,10.85
2018-04-06T20:22:04.067Z,10.81
2018-04-06T20:24:33.432Z,10.71
2018-04-06T20:27:01.886Z,10.67
2018-04-06T20:29:31.000Z,10.58
2018-04-06T20:31:59.383Z,10.44
2018-04-06T20:34:28.460Z,10.60
2018-04-06T20:36:58.652Z,10.54
2018-04-06T20:39:31.163Z,10.44
2018-04-06T20:42:00.170Z,10.44
2018-04-06T20:44:30.280Z,10.40
2018-04-06T20:46:58.621Z,10.40
2018-04-06T20:49:27.851Z,10.36
2018-04-06T20:51:57.857Z,10.36
2018-04-06T20:54:28.337Z,10.20
2018-04-06T20:56:58.353Z,10.15
2018-04-06T20:59:28.122Z,10.05
2018-04-06T21:01:57.528Z,10.04
2018-04-06T21:04:27.991Z,9.93
2018-04-06T21:06:58.089Z,9.84
2018-04-06T21:09:26.904Z,9.80
2018-04-06T21:11:56.995Z,9.79
2018-04-06T21:14:26.438Z,9.68
2018-04-06T21:16:56.020Z,9.70
2018-04-06T21:19:25.301Z,9.57
2018-04-06T21:21:54.099Z,9.60
2018-04-06T21:24:24.036Z,9.44
2018-04-06T21:26:54.237Z,9.40
2018-04-06T21:29:23.031Z,9.52
2018-04-06T21:31:51.463Z,9.37
2018-04-06T21:34:19.927Z,9.36
2018-04-06T21:36:48.307Z,9.30
2018-04-06T21:39:18.114Z,9.36
2018-04-06T21:44:20.718Z,9.31
2018-04-06T21:46:50.008Z,9.23
2018-04-06T21:49:19.163Z,9.33
2018-04-06T21:51:48.441Z,9.28
2018-04-06T21:54:18.962Z,9.25
2018-04-06T21:56:49.688Z,9.25
2018-04-06T21:59:22.349Z,9.29
2018-04-06T22:01:54.236Z,9.28
2018-04-06T22:04:22.550Z,9.33
2018-04-06T22:06:51.241Z,9.35
2018-04-06T22:09:22.186Z,9.33
2018-04-06T22:11:51.556Z,9.28
2018-04-06T22:14:20.740Z,9.41
2018-04-06T22:16:49.154Z,9.34
2018-04-06T22:19:18.865Z,9.29
2018-04-06T22:21:47.539Z,9.19
2018-04-06T22:24:17.398Z,9.22
2018-04-06T22:26:45.782Z,9.10
2018-04-06T22:29:15.991Z,9.09
2018-04-06T22:31:44.417Z,9.11
2018-04-06T22:34:14.028Z,9.12
2018-04-06T22:36:43.293Z,9.18
2018-04-06T22:39:11.662Z,9.13
2018-04-06T22:41:40.939Z,9.14
2018-04-06T22:44:10.050Z,9.17
2018-04-06T22:46:39.982Z,9.06
2018-04-06T22:49:10.898Z,8.99
2018-04-06T22:51:41.846Z,8.92
2018-04-06T22:54:10.934Z,8.83
2018-04-06T22:56:39.264Z,8.85
2018-04-06T22:59:08.292Z,8.91
2018-04-06T23:01:40.505Z,8.96
2018-04-06T23:04:10.331Z,8.93
2018-04-06T23:06:38.939Z,8.90
2018-04-06T23:09:09.779Z,8.86
2018-04-06T23:11:38.393Z,8.78
2018-04-06T23:14:07.795Z,8.89
2018-04-06T23:16:37.186Z,8.81
2018-04-06T23:19:05.535Z,8.70
2018-04-06T23:21:39.128Z,8.82
2018-04-06T23:24:08.920Z,8.73
2018-04-06T23:26:38.849Z,8.71
2018-04-06T23:29:07.473Z,8.78
2018-04-06T23:31:36.836Z,8.70
2018-04-06T23:34:05.302Z,8.66
2018-04-06T23:36:36.704Z,8.68
2018-04-06T23:39:06.936Z,8.67
2018-04-06T23:41:36.161Z,8.71
2018-04-06T23:44:05.151Z,8.71
2018-04-06T23:46:34.250Z,8.72
2018-04-06T23:49:03.266Z,8.72
2018-04-06T23:51:31.599Z,8.83
2018-04-06T23:54:03.855Z,8.87
2018-04-06T23:56:33.044Z,8.87
2018-04-06T23:59:01.830Z,8.87
